Benfica (Benevides), Brazil
Current Conditions -  °F | °C
As of 2:00 AM on Monday 20 Oct 2014 (Local Time) from SBBE Reporting Station
Clear Clear  
Wind Chill: 72°   Ceiling: Unl
Heat Index: NA   Visibility: 6mi
Dew Point: 73°   Wind: 3mph
Humidity: NA   Direction: 70°ENE
Pressure: 29.83"   Gusts: NA
Location:  1.3°S, 48.3°W
Report Text: SBBE 200500Z 07003KT CAVOK 22/23 Q1010
Loading
Personal Weather Stations






























Interactive Weather Map
Tropical Storm Tracking
New forecast layout! Learn more

10-Day Weather Forecast

Advertisements
Track Severe Weather on mobile